aviador You're here:

LKCV Decoded Metar

CASLAV in CZECH REPUBLIC
Report Time2018-02-21 04:00:00
UTC Time2018-02-21 05:09:46
Flight Rules Old
Wind300° at 05 kt
W.Decomp.*RWY 32: 4.6 kt HW 2 kt LCW
W.Rank300° ranks 2
Current wind is below 300° avg. (8.1)
Visibility9999 m
Phenomena:N/A
Clouds:N/A
Expected CloudBase > 400 ft AGL from Temp-Dew spread
CeilingNone
Temp-6°C (ISA -19)
Dew Point-7°C (93% RH)
AAT-10.6°C
QNH1018 hPa
Density Alt-1,726 ft
Elevation794 ft
Report Wrong Elevation
Raw Report
METAR LKCV 210400Z 30005KT CAVOK M06/M07 Q1018 NOSIG=

Extra information for LKCV:More info

Metar Taf Metar & Taf Last 4 Metars F.Rules Stats Wind Profile Meteogram Temp Stats Airport Information Weather charts Add Link Nearby VenuesMetar ALERT Operation Metar Decoded Social comments